createdAt,value
2023-02-08T00:00:24.264Z,148794.06
2023-02-08T00:02:50.103Z,148785.25
2023-02-08T00:05:17.344Z,148747.59
2023-02-08T00:07:43.317Z,148726.28
2023-02-08T00:10:09.936Z,148727.53
2023-02-08T00:12:36.943Z,148684.88
2023-02-08T00:15:03.769Z,148658.50
2023-02-08T00:17:30.221Z,148664.81
2023-02-08T00:19:56.522Z,148694.88
2023-02-08T00:22:22.587Z,148720.00
2023-02-08T00:24:53.239Z,148725.03
2023-02-08T00:27:19.112Z,148770.22
2023-02-08T00:29:44.944Z,148790.31
2023-02-08T00:32:10.763Z,148799.06
2023-02-08T00:34:37.989Z,148801.59
2023-02-08T00:37:04.932Z,148827.97
2023-02-08T00:39:31.136Z,148799.06
2023-02-08T00:41:57.448Z,148794.06
2023-02-08T00:44:23.530Z,148810.41
2023-02-08T00:46:50.131Z,148821.66
2023-02-08T00:49:16.111Z,148835.50
2023-02-08T00:51:41.948Z,148789.06
2023-02-08T00:54:14.151Z,148810.41
2023-02-08T00:56:40.003Z,148795.31
2023-02-08T00:59:05.838Z,148812.91
2023-02-08T01:01:33.181Z,148789.06
2023-02-08T01:03:58.988Z,148792.81
2023-02-08T01:06:24.818Z,148799.06
2023-02-08T01:08:50.582Z,148786.50
2023-02-08T01:11:21.565Z,148800.31
2023-02-08T01:13:48.228Z,148779.00
2023-02-08T01:16:17.082Z,148771.47
2023-02-08T01:18:45.422Z,148767.69
2023-02-08T01:21:14.679Z,148772.72
2023-02-08T01:23:40.835Z,148763.94
2023-02-08T01:26:08.254Z,148762.66
2023-02-08T01:28:34.809Z,148770.22
2023-02-08T01:31:07.359Z,148782.75
2023-02-08T01:33:33.892Z,148799.06
2023-02-08T01:35:59.717Z,148766.44
2023-02-08T01:38:25.881Z,148771.47
2023-02-08T01:40:51.869Z,148760.16
2023-02-08T01:43:27.417Z,148767.69
2023-02-08T01:45:53.440Z,148787.81
2023-02-08T01:48:34.547Z,148790.31
2023-02-08T01:51:29.667Z,148781.50
2023-02-08T01:53:57.343Z,148797.81
2023-02-08T01:56:29.003Z,148767.69
2023-02-08T01:58:59.496Z,148766.44
2023-02-08T02:01:28.100Z,148774.00
2023-02-08T02:03:54.913Z,148787.81
2023-02-08T02:06:29.230Z,148789.06
2023-02-08T02:09:18.110Z,148782.75
2023-02-08T02:11:44.003Z,148802.84
2023-02-08T02:14:11.673Z,148799.06
2023-02-08T02:16:38.030Z,148762.66
2023-02-08T02:19:10.064Z,148785.25
2023-02-08T02:21:39.017Z,148787.81
2023-02-08T02:24:22.447Z,148781.50
2023-02-08T02:27:16.643Z,148774.00
2023-02-08T02:30:15.180Z,148767.69
2023-02-08T02:33:21.060Z,148780.25
2023-02-08T02:36:02.271Z,148767.69
2023-02-08T02:38:51.220Z,148760.16
2023-02-08T02:41:54.985Z,148762.66
2023-02-08T02:44:42.417Z,148792.81
2023-02-08T02:47:19.178Z,148768.94
2023-02-08T02:50:00.452Z,148762.66
2023-02-08T02:52:38.282Z,148790.31
2023-02-08T02:55:12.785Z,148807.88
2023-02-08T02:57:41.098Z,148774.00
2023-02-08T03:00:10.508Z,148757.66
2023-02-08T03:02:37.398Z,148741.34
2023-02-08T03:05:06.039Z,148703.69
2023-02-08T03:07:58.101Z,148721.28
2023-02-08T03:10:54.413Z,148714.97
2023-02-08T03:13:56.345Z,148688.63
2023-02-08T03:17:07.412Z,148657.25
2023-02-08T03:20:11.753Z,148691.13
2023-02-08T03:22:45.324Z,148677.31
2023-02-08T03:25:26.506Z,148703.69
2023-02-08T03:27:57.653Z,148686.13
2023-02-08T03:30:53.606Z,148706.19
2023-02-08T03:33:39.994Z,148726.28
2023-02-08T03:36:19.153Z,148727.53
2023-02-08T03:38:49.919Z,148704.94
2023-02-08T03:41:25.871Z,148716.25
2023-02-08T03:44:10.354Z,148694.88
2023-02-08T03:46:59.075Z,148716.25
2023-02-08T03:49:31.455Z,148693.63
2023-02-08T03:52:01.688Z,148673.56
2023-02-08T03:54:30.984Z,148668.56
2023-02-08T03:57:12.153Z,148657.25
2023-02-08T03:59:41.398Z,148648.47
2023-02-08T04:02:12.104Z,148618.34
2023-02-08T04:04:42.952Z,148633.41
2023-02-08T04:07:09.453Z,148635.91
2023-02-08T04:09:37.260Z,148619.59
2023-02-08T04:12:04.920Z,148650.97
2023-02-08T04:14:30.737Z,148629.66
2023-02-08T04:16:56.780Z,148643.44
2023-02-08T04:19:22.623Z,148645.97
2023-02-08T04:21:48.484Z,148674.81
2023-02-08T04:24:14.346Z,148694.88
2023-02-08T04:26:40.248Z,148688.63
2023-02-08T04:29:06.140Z,148704.94
2023-02-08T04:31:32.103Z,148718.75
2023-02-08T04:33:58.070Z,148701.19
2023-02-08T04:36:23.953Z,148733.84
2023-02-08T04:38:49.864Z,148732.53
2023-02-08T04:41:16.139Z,148702.44
2023-02-08T04:43:42.013Z,148692.38
2023-02-08T04:46:08.268Z,148676.06
2023-02-08T04:48:34.218Z,148707.44
2023-02-08T04:51:00.099Z,148697.38
2023-02-08T04:53:26.186Z,148701.19
2023-02-08T04:55:52.434Z,148703.69
2023-02-08T04:58:18.476Z,148652.22
2023-02-08T05:00:45.020Z,148668.56
2023-02-08T05:03:11.250Z,148652.22
2023-02-08T05:05:37.173Z,148691.13
2023-02-08T05:08:03.659Z,148657.25
2023-02-08T05:10:29.699Z,148639.66
2023-02-08T05:12:55.664Z,148664.81
2023-02-08T05:15:21.759Z,148628.41
2023-02-08T05:17:47.984Z,148653.50
2023-02-08T05:20:14.500Z,148652.22
2023-02-08T05:22:40.412Z,148627.16
2023-02-08T05:25:07.332Z,148622.09
2023-02-08T05:27:33.730Z,148619.59
2023-02-08T05:30:02.346Z,148609.59
2023-02-08T05:32:28.178Z,148632.16
2023-02-08T05:34:54.134Z,148627.16
2023-02-08T05:37:20.004Z,148640.94
2023-02-08T05:39:45.881Z,148644.72
2023-02-08T05:42:11.827Z,148619.59
2023-02-08T05:44:37.851Z,148619.59
2023-02-08T05:47:03.852Z,148650.97
2023-02-08T05:49:29.869Z,148578.22
2023-02-08T05:51:55.786Z,148593.28
2023-02-08T05:54:21.862Z,148593.28
2023-02-08T05:56:47.888Z,148534.28
2023-02-08T05:59:13.822Z,148566.91
2023-02-08T06:01:40.344Z,148568.16
2023-02-08T06:04:06.341Z,148541.84
2023-02-08T06:06:32.486Z,148556.91
2023-02-08T06:08:58.369Z,148563.16
2023-02-08T06:11:24.221Z,148551.84
2023-02-08T06:13:50.154Z,148526.78
2023-02-08T06:16:18.871Z,148521.78
2023-02-08T06:18:45.663Z,148470.34
2023-02-08T06:21:12.154Z,148495.41
2023-02-08T06:23:38.059Z,148507.97
2023-02-08T06:26:04.237Z,148514.22
2023-02-08T06:28:30.167Z,148500.41
2023-02-08T06:30:56.117Z,148550.59
2023-02-08T06:33:22.073Z,148519.22
2023-02-08T06:35:51.469Z,148489.16
2023-02-08T06:38:17.442Z,148505.47
2023-02-08T06:40:46.068Z,148475.34
2023-02-08T06:43:11.909Z,148487.91
2023-02-08T06:45:37.817Z,148455.28
2023-02-08T06:48:03.965Z,148474.09
2023-02-08T06:50:30.341Z,148494.16
2023-02-08T06:52:56.342Z,148482.84
2023-02-08T06:55:22.260Z,148486.66
2023-02-08T06:57:48.080Z,148489.16
2023-02-08T07:00:14.378Z,148501.72
2023-02-08T07:02:40.324Z,148489.16
2023-02-08T07:05:06.687Z,148507.97
2023-02-08T07:07:32.565Z,148536.78
2023-02-08T07:09:58.508Z,148492.91
2023-02-08T07:12:24.439Z,148496.66
2023-02-08T07:14:50.325Z,148516.72
2023-02-08T07:17:16.254Z,148511.72
2023-02-08T07:19:42.118Z,148539.34
2023-02-08T07:22:08.004Z,148538.09
2023-02-08T07:24:38.652Z,148500.41
2023-02-08T07:27:06.093Z,148550.59
2023-02-08T07:29:35.714Z,148549.34
2023-02-08T07:32:03.691Z,148516.72
2023-02-08T07:34:31.992Z,148504.22
2023-02-08T07:36:58.166Z,148570.66
2023-02-08T07:39:24.489Z,148593.28
2023-02-08T07:41:50.498Z,148589.47
2023-02-08T07:44:16.474Z,148602.03
2023-02-08T07:46:42.473Z,148599.53
2023-02-08T07:49:08.433Z,148607.03
2023-02-08T07:51:34.368Z,148648.47
2023-02-08T07:54:00.287Z,148668.56
2023-02-08T07:56:26.422Z,148647.22
2023-02-08T07:58:52.289Z,148689.88
2023-02-08T08:01:22.425Z,148687.38
2023-02-08T08:03:52.166Z,148674.81
2023-02-08T08:06:19.847Z,148703.69
2023-02-08T08:08:47.082Z,148753.91
2023-02-08T08:11:14.727Z,148767.69
2023-02-08T08:13:40.657Z,148841.78
2023-02-08T08:16:06.846Z,148816.66
2023-02-08T08:18:32.679Z,148801.59
2023-02-08T08:20:58.609Z,148825.47
2023-02-08T08:23:24.573Z,148848.06
2023-02-08T08:25:50.424Z,148829.22
2023-02-08T08:28:16.537Z,148845.56
2023-02-08T08:30:44.094Z,148885.72
2023-02-08T08:33:10.836Z,148860.63
2023-02-08T08:35:37.144Z,148895.78
2023-02-08T08:38:02.980Z,148895.78
2023-02-08T08:40:28.875Z,148919.63
2023-02-08T08:42:56.471Z,148940.97
2023-02-08T08:45:22.690Z,148972.41
2023-02-08T08:47:48.551Z,148971.16
2023-02-08T08:50:14.600Z,148998.75
2023-02-08T08:52:42.012Z,148997.50
2023-02-08T08:55:08.668Z,149026.41
2023-02-08T08:57:34.533Z,149037.75
2023-02-08T09:00:00.441Z,149051.53
2023-02-08T09:02:26.358Z,149042.75
2023-02-08T09:04:52.285Z,149047.78
2023-02-08T09:07:18.281Z,149026.41
2023-02-08T09:09:47.301Z,149050.28
2023-02-08T09:12:15.103Z,149059.09
2023-02-08T09:14:41.757Z,149060.34
2023-02-08T09:17:07.701Z,149085.47
2023-02-08T09:19:33.565Z,149145.81
2023-02-08T09:21:59.988Z,149162.13
2023-02-08T09:24:25.905Z,149138.25
2023-02-08T09:26:51.779Z,149178.47
2023-02-08T09:29:18.221Z,149183.53
2023-02-08T09:31:44.248Z,149209.91
2023-02-08T09:34:10.134Z,149214.91
2023-02-08T09:36:38.818Z,149240.09
2023-02-08T09:39:15.213Z,149287.88
2023-02-08T09:42:15.235Z,149334.38
2023-02-08T09:44:44.002Z,149393.50
2023-02-08T09:47:33.124Z,149453.91
2023-02-08T09:50:23.330Z,149485.38
2023-02-08T09:52:57.391Z,149616.25
2023-02-08T09:55:31.847Z,149759.78
2023-02-08T09:58:02.690Z,149908.44
2023-02-08T10:00:40.137Z,150183.28
2023-02-08T10:03:21.277Z,150508.84
2023-02-08T10:05:47.547Z,151050.91
2023-02-08T10:08:13.483Z,152180.84
2023-02-08T10:11:17.959Z,153753.75
2023-02-08T10:14:08.133Z,155009.53
2023-02-08T10:16:40.140Z,155650.34
2023-02-08T10:19:33.607Z,155766.81
2023-02-08T10:22:13.333Z,156389.47
2023-02-08T10:25:18.834Z,156034.53
2023-02-08T10:28:03.546Z,155766.81
2023-02-08T10:30:38.035Z,155825.75
2023-02-08T10:33:13.085Z,155828.28
2023-02-08T10:35:44.351Z,156166.44
2023-02-08T10:38:19.469Z,156434.34
2023-02-08T10:40:48.373Z,156381.78
2023-02-08T10:43:39.768Z,156663.94
2023-02-08T10:46:11.971Z,156715.22
2023-02-08T10:49:04.188Z,156701.13
2023-02-08T10:51:30.275Z,156807.59
2023-02-08T10:53:57.183Z,156766.56
2023-02-08T10:56:29.615Z,156472.84
2023-02-08T10:58:58.650Z,157109.25
2023-02-08T11:01:26.912Z,157274.88
2023-02-08T11:04:09.555Z,156790.97
2023-02-08T11:06:36.482Z,156762.72
2023-02-08T11:09:03.752Z,156805.03
2023-02-08T11:11:36.159Z,156567.69
2023-02-08T11:14:09.024Z,156651.13
2023-02-08T11:16:37.564Z,156475.41
2023-02-08T11:19:07.221Z,156888.50
2023-02-08T11:21:39.560Z,157079.69
2023-02-08T11:24:14.543Z,156624.16
2023-02-08T11:26:41.196Z,156453.56
2023-02-08T11:29:13.173Z,155818.03
2023-02-08T11:31:41.238Z,156404.84
2023-02-08T11:34:09.865Z,156181.84
2023-02-08T11:36:42.600Z,156855.09
2023-02-08T11:39:40.181Z,156552.31
2023-02-08T11:42:07.161Z,156412.56
2023-02-08T11:44:36.576Z,155993.50
2023-02-08T11:47:05.716Z,156238.22
2023-02-08T11:49:40.586Z,156515.13
2023-02-08T11:52:19.792Z,155705.34
2023-02-08T11:54:46.251Z,156076.75
2023-02-08T11:57:21.210Z,155941.00
2023-02-08T11:59:51.736Z,156052.44
2023-02-08T12:02:30.788Z,155295.91
2023-02-08T12:04:58.751Z,155786.00
2023-02-08T12:08:03.032Z,155711.75
2023-02-08T12:10:54.122Z,155874.41
2023-02-08T12:13:31.938Z,155324.03
2023-02-08T12:15:59.210Z,154618.56
2023-02-08T12:18:43.095Z,154469.19
2023-02-08T12:21:21.303Z,154618.56
2023-02-08T12:23:56.967Z,155146.28
2023-02-08T12:26:26.996Z,155304.88
2023-02-08T12:29:11.612Z,155530.00
2023-02-08T12:31:59.495Z,155356.03
2023-02-08T12:35:04.468Z,155304.88
2023-02-08T12:38:07.602Z,155426.41
2023-02-08T12:40:54.717Z,155288.25
2023-02-08T12:44:12.475Z,155348.31
2023-02-08T12:47:19.544Z,155798.84
2023-02-08T12:49:48.331Z,155834.69
2023-02-08T12:52:32.499Z,156163.88
2023-02-08T12:55:04.580Z,156038.34
2023-02-08T12:57:32.460Z,156112.63
2023-02-08T13:00:06.906Z,156272.81
2023-02-08T13:02:56.978Z,156017.81
2023-02-08T13:05:27.602Z,155668.25
2023-02-08T13:08:18.392Z,155882.09
2023-02-08T13:10:49.279Z,155892.31
2023-02-08T13:13:27.753Z,155905.13
2023-02-08T13:16:08.698Z,155915.34
2023-02-08T13:18:39.506Z,155624.75
2023-02-08T13:21:14.837Z,155546.63
2023-02-08T13:23:52.014Z,155489.06
2023-02-08T13:26:30.802Z,155123.28
2023-02-08T13:29:01.814Z,155471.16
2023-02-08T13:31:40.473Z,155138.63
2023-02-08T13:34:16.927Z,155151.44
2023-02-08T13:36:51.412Z,154857.41
2023-02-08T13:39:45.917Z,154880.50
2023-02-08T13:42:33.110Z,154793.56
2023-02-08T13:45:00.786Z,154622.38
2023-02-08T13:47:28.145Z,154710.53
2023-02-08T13:50:00.344Z,154199.94
2023-02-08T13:52:47.689Z,154313.50
2023-02-08T13:55:37.514Z,153619.94
2023-02-08T13:58:15.688Z,152543.91
2023-02-08T14:00:54.294Z,151886.56
2023-02-08T14:03:23.165Z,151642.00
2023-02-08T14:05:57.291Z,151357.09
2023-02-08T14:08:38.314Z,151148.28
2023-02-08T14:11:04.265Z,150962.41
2023-02-08T14:13:47.182Z,150928.28
2023-02-08T14:16:35.210Z,150889.09
2023-02-08T14:19:20.313Z,150789.19
2023-02-08T14:22:01.980Z,150695.72
2023-02-08T14:24:36.706Z,150674.25
2023-02-08T14:27:21.882Z,150657.84
2023-02-08T14:30:04.366Z,150592.16
2023-02-08T14:32:35.220Z,150537.84
2023-02-08T14:35:20.188Z,150553.00
2023-02-08T14:37:47.853Z,150500.00
2023-02-08T14:40:20.738Z,150469.69
2023-02-08T14:43:01.411Z,150390.19
2023-02-08T14:45:27.452Z,150404.06
2023-02-08T14:47:57.085Z,150372.53
2023-02-08T14:50:30.226Z,150329.63
2023-02-08T14:53:28.720Z,150323.28
2023-02-08T14:56:04.568Z,150371.25
2023-02-08T14:58:34.249Z,150309.47
2023-02-08T15:01:07.252Z,150322.03
2023-02-08T15:03:34.631Z,150294.31
2023-02-08T15:06:26.697Z,150309.47
2023-02-08T15:08:54.329Z,150267.75
2023-02-08T15:11:27.318Z,150270.25
2023-02-08T15:13:56.312Z,150216.03
2023-02-08T15:16:27.145Z,150250.09
2023-02-08T15:18:53.145Z,150253.84
2023-02-08T15:21:23.932Z,150231.16
2023-02-08T15:23:59.493Z,150238.75
2023-02-08T15:26:25.908Z,150184.53
2023-02-08T15:28:52.542Z,150205.97
2023-02-08T15:31:26.669Z,150229.91
2023-02-08T15:33:53.821Z,150139.09
2023-02-08T15:36:31.625Z,150156.75
2023-02-08T15:39:01.686Z,150158.03
2023-02-08T15:41:37.474Z,150164.31
2023-02-08T15:44:18.900Z,150117.69
2023-02-08T15:46:46.048Z,150097.50
2023-02-08T15:49:34.718Z,150083.63
2023-02-08T15:52:01.564Z,150064.72
2023-02-08T15:54:27.525Z,150030.69
2023-02-08T15:57:01.761Z,150050.84
2023-02-08T15:59:32.102Z,150004.25
2023-02-08T16:02:05.172Z,150033.19
2023-02-08T16:04:31.091Z,150002.94
2023-02-08T16:06:59.338Z,149999.16
2023-02-08T16:09:29.635Z,149982.78
2023-02-08T16:11:59.716Z,149967.66
2023-02-08T16:14:29.314Z,149960.09
2023-02-08T16:16:57.422Z,149963.88
2023-02-08T16:19:31.986Z,149924.81
2023-02-08T16:22:13.154Z,149919.78
2023-02-08T16:24:38.992Z,149972.72
2023-02-08T16:27:24.345Z,149897.13
2023-02-08T16:29:50.338Z,149878.19
2023-02-08T16:32:22.386Z,149835.34
2023-02-08T16:34:48.389Z,149831.59
2023-02-08T16:37:22.542Z,149791.28
2023-02-08T16:40:38.192Z,149766.06
2023-02-08T16:43:31.149Z,149686.75
2023-02-08T16:46:15.218Z,149722.03
2023-02-08T16:48:43.500Z,149693.03
2023-02-08T16:51:15.964Z,149656.53
2023-02-08T16:53:42.893Z,149661.56
2023-02-08T16:56:10.636Z,149640.16
2023-02-08T16:58:37.097Z,149637.66
2023-02-08T17:01:03.849Z,149617.50
2023-02-08T17:03:31.947Z,149603.66
2023-02-08T17:06:00.296Z,149612.50
2023-02-08T17:08:26.733Z,149575.97
2023-02-08T17:10:57.921Z,149587.28
2023-02-08T17:13:26.516Z,149559.63
2023-02-08T17:15:53.082Z,149490.41
2023-02-08T17:18:20.348Z,149480.31
2023-02-08T17:20:46.805Z,149461.44
2023-02-08T17:23:15.158Z,149457.66
2023-02-08T17:25:41.780Z,149456.41
2023-02-08T17:28:15.653Z,149417.44
2023-02-08T17:30:42.933Z,149407.34
2023-02-08T17:33:17.295Z,149372.13
2023-02-08T17:35:50.457Z,149320.53
2023-02-08T17:38:18.280Z,149323.06
2023-02-08T17:40:44.730Z,149335.63
2023-02-08T17:43:12.370Z,149308.00
2023-02-08T17:45:39.971Z,149301.69
2023-02-08T17:48:06.756Z,149340.66
2023-02-08T17:50:33.234Z,149362.09
2023-02-08T17:52:59.161Z,149370.88
2023-02-08T17:55:26.830Z,149373.38
2023-02-08T17:57:57.899Z,149368.34
2023-02-08T18:00:25.838Z,149341.97
2023-02-08T18:02:54.627Z,149343.22
2023-02-08T18:05:24.044Z,149353.25
2023-02-08T18:07:51.441Z,149339.41
2023-02-08T18:10:18.492Z,149311.75
2023-02-08T18:12:44.571Z,149329.38
2023-02-08T18:15:19.028Z,149321.78
2023-02-08T18:17:46.085Z,149321.78
2023-02-08T18:20:14.038Z,149339.41
2023-02-08T18:22:44.338Z,149292.91
2023-02-08T18:25:12.562Z,149279.06
2023-02-08T18:27:38.945Z,149260.19
2023-02-08T18:30:05.894Z,149304.19
2023-02-08T18:32:32.072Z,149292.91
2023-02-08T18:34:58.598Z,149267.72
2023-02-08T18:37:24.968Z,149262.69
2023-02-08T18:39:51.696Z,149252.69
2023-02-08T18:42:18.076Z,149238.84
2023-02-08T18:44:44.102Z,149216.22
2023-02-08T18:47:10.095Z,149204.88
2023-02-08T18:49:39.849Z,149214.91
2023-02-08T18:52:10.976Z,149237.56
2023-02-08T18:54:38.394Z,149233.78
2023-02-08T18:57:05.647Z,149202.38
2023-02-08T18:59:32.868Z,149189.78
2023-02-08T19:02:00.966Z,149174.69
2023-02-08T19:04:27.527Z,149138.25
2023-02-08T19:06:53.725Z,149158.34
2023-02-08T19:09:19.615Z,149139.50
2023-02-08T19:11:45.587Z,149130.72
2023-02-08T19:14:15.208Z,149158.34
2023-02-08T19:16:42.468Z,149147.06
2023-02-08T19:19:09.532Z,149103.06
2023-02-08T19:21:35.807Z,149055.34
2023-02-08T19:24:02.359Z,149071.63
2023-02-08T19:26:32.036Z,149062.84
2023-02-08T19:29:02.796Z,149106.81
2023-02-08T19:31:30.488Z,149091.78
2023-02-08T19:34:00.274Z,149074.19
2023-02-08T19:36:33.741Z,149087.97
2023-02-08T19:39:00.846Z,149076.69
2023-02-08T19:41:35.150Z,149099.28
2023-02-08T19:44:04.014Z,149113.13
2023-02-08T19:46:32.406Z,149072.88
2023-02-08T19:49:00.103Z,149056.59
2023-02-08T19:51:28.573Z,149049.03
2023-02-08T19:53:56.654Z,149072.88
2023-02-08T19:56:22.940Z,149086.72
2023-02-08T19:58:48.947Z,149101.81
2023-02-08T20:01:17.690Z,149075.44
2023-02-08T20:03:44.295Z,149071.63
2023-02-08T20:06:28.642Z,149100.56
2023-02-08T20:08:55.210Z,149079.19
2023-02-08T20:11:28.285Z,149069.13
2023-02-08T20:13:56.671Z,149044.00
2023-02-08T20:16:22.942Z,149042.75
2023-02-08T20:18:49.725Z,149070.38
2023-02-08T20:21:16.408Z,149067.88
2023-02-08T20:23:43.164Z,149052.78
2023-02-08T20:26:17.003Z,149070.38
2023-02-08T20:28:46.005Z,149036.44
2023-02-08T20:31:16.165Z,149030.19
2023-02-08T20:33:42.588Z,149021.41
2023-02-08T20:36:11.525Z,148981.16
2023-02-08T20:38:37.882Z,148998.75
2023-02-08T20:41:05.871Z,148995.00
2023-02-08T20:43:32.992Z,148979.91
2023-02-08T20:45:59.547Z,149017.59
2023-02-08T20:48:25.507Z,148988.72
2023-02-08T20:50:51.427Z,148942.22
2023-02-08T20:53:17.558Z,148927.16
2023-02-08T20:55:44.109Z,148923.41
2023-02-08T20:58:10.190Z,148938.47
2023-02-08T21:00:41.820Z,148888.22
2023-02-08T21:03:08.936Z,148893.25
2023-02-08T21:05:34.840Z,148894.53
2023-02-08T21:08:00.691Z,148895.78
2023-02-08T21:10:26.656Z,148875.66
2023-02-08T21:12:52.752Z,148844.31
2023-02-08T21:15:18.680Z,148874.41
2023-02-08T21:17:44.662Z,148849.31
2023-02-08T21:20:12.159Z,148819.16
2023-02-08T21:22:38.590Z,148854.31
2023-02-08T21:25:04.905Z,148835.50
2023-02-08T21:27:30.823Z,148819.16
2023-02-08T21:29:56.985Z,148843.03
2023-02-08T21:32:23.312Z,148791.56
2023-02-08T21:34:51.334Z,148791.56
2023-02-08T21:37:17.974Z,148780.25
2023-02-08T21:39:45.972Z,148807.88
2023-02-08T21:42:13.142Z,148776.50
2023-02-08T21:44:39.595Z,148772.72
2023-02-08T21:47:05.785Z,148775.25
2023-02-08T21:49:50.393Z,148797.81
2023-02-08T21:52:35.220Z,148790.31
2023-02-08T21:55:01.179Z,148772.72
2023-02-08T21:57:29.563Z,148748.84
2023-02-08T22:00:00.747Z,148751.34
2023-02-08T22:02:29.289Z,148755.16
2023-02-08T22:05:16.937Z,148767.69
2023-02-08T22:07:47.684Z,148772.72
2023-02-08T22:10:16.731Z,148751.34
2023-02-08T22:12:42.862Z,148775.25
2023-02-08T22:15:10.662Z,148725.03
2023-02-08T22:17:36.788Z,148774.00
2023-02-08T22:20:04.215Z,148757.66
2023-02-08T22:22:30.214Z,148790.31
2023-02-08T22:24:56.150Z,148752.66
2023-02-08T22:27:22.122Z,148758.91
2023-02-08T22:29:48.075Z,148742.59
2023-02-08T22:32:16.313Z,148740.09
2023-02-08T22:34:43.708Z,148738.84
2023-02-08T22:37:10.504Z,148757.66
2023-02-08T22:39:36.489Z,148748.84
2023-02-08T22:42:07.739Z,148743.84
2023-02-08T22:44:37.564Z,148703.69
2023-02-08T22:47:07.551Z,148664.81
2023-02-08T22:49:34.453Z,148659.75
2023-02-08T22:52:00.573Z,148647.22
2023-02-08T22:54:26.513Z,148678.56
2023-02-08T22:56:52.503Z,148642.19
2023-02-08T22:59:18.459Z,148647.22
2023-02-08T23:01:44.355Z,148691.13
2023-02-08T23:04:10.376Z,148672.31
2023-02-08T23:06:36.396Z,148659.75
2023-02-08T23:09:03.911Z,148650.97
2023-02-08T23:11:29.993Z,148594.53
2023-02-08T23:13:55.894Z,148604.53
2023-02-08T23:16:21.967Z,148603.28
2023-02-08T23:18:47.967Z,148610.84
2023-02-08T23:21:16.743Z,148608.28
2023-02-08T23:23:43.493Z,148637.16
2023-02-08T23:26:14.100Z,148563.16
2023-02-08T23:28:40.298Z,148555.66
2023-02-08T23:31:11.790Z,148550.59
2023-02-08T23:33:38.668Z,148589.47
2023-02-08T23:36:13.585Z,148555.66
2023-02-08T23:38:39.792Z,148554.34
2023-02-08T23:41:09.037Z,148548.09
2023-02-08T23:43:35.627Z,148569.41
2023-02-08T23:46:25.896Z,148539.34
2023-02-08T23:48:52.496Z,148517.97
2023-02-08T23:51:21.087Z,148504.22
2023-02-08T23:53:50.260Z,148511.72
2023-02-08T23:56:22.116Z,148539.34
2023-02-08T23:58:50.896Z,148497.91
